sensor_id;sensor_type;location;lat;lon;timestamp;pressure;altitude;pressure_sealevel;temperature;humidity
6090;BME280;3073;42.660;23.316;2022-12-16T00:01:06;94261.34;;;4.43;100.00
6090;BME280;3073;42.660;23.316;2022-12-16T00:03:34;94252.19;;;4.42;100.00
6090;BME280;3073;42.660;23.316;2022-12-16T00:06:01;94256.38;;;4.54;100.00
6090;BME280;3073;42.660;23.316;2022-12-16T00:08:31;94281.69;;;4.48;100.00
6090;BME280;3073;42.660;23.316;2022-12-16T00:10:59;94287.03;;;4.33;100.00
6090;BME280;3073;42.660;23.316;2022-12-16T00:13:29;94255.50;;;4.42;100.00
6090;BME280;3073;42.660;23.316;2022-12-16T00:15:57;94255.28;;;4.44;100.00
6090;BME280;3073;42.660;23.316;2022-12-16T00:18:24;94269.69;;;4.43;100.00
6090;BME280;3073;42.660;23.316;2022-12-16T00:20:53;94265.75;;;4.47;100.00
6090;BME280;3073;42.660;23.316;2022-12-16T00:23:20;94268.81;;;4.56;100.00
6090;BME280;3073;42.660;23.316;2022-12-16T00:25:48;94264.56;;;4.56;100.00
6090;BME280;3073;42.660;23.316;2022-12-16T00:28:16;94252.88;;;4.55;100.00
6090;BME280;3073;42.660;23.316;2022-12-16T00:30:49;94236.97;;;4.55;100.00
6090;BME280;3073;42.660;23.316;2022-12-16T00:33:17;94267.34;;;4.42;100.00
6090;BME280;3073;42.660;23.316;2022-12-16T00:35:44;94264.59;;;4.50;100.00
6090;BME280;3073;42.660;23.316;2022-12-16T00:38:11;94277.97;;;4.19;100.00
6090;BME280;3073;42.660;23.316;2022-12-16T00:40:38;94249.53;;;4.37;100.00
6090;BME280;3073;42.660;23.316;2022-12-16T00:43:05;94243.25;;;4.46;100.00
6090;BME280;3073;42.660;23.316;2022-12-16T00:45:32;94270.13;;;4.27;100.00
6090;BME280;3073;42.660;23.316;2022-12-16T00:48:01;94236.84;;;4.43;100.00
6090;BME280;3073;42.660;23.316;2022-12-16T00:50:28;94259.56;;;4.12;100.00
6090;BME280;3073;42.660;23.316;2022-12-16T00:52:55;94245.22;;;4.37;100.00
6090;BME280;3073;42.660;23.316;2022-12-16T00:55:22;94257.19;;;4.24;100.00
6090;BME280;3073;42.660;23.316;2022-12-16T00:57:49;94237.28;;;4.34;100.00
6090;BME280;3073;42.660;23.316;2022-12-16T01:00:17;94264.00;;;4.17;100.00
6090;BME280;3073;42.660;23.316;2022-12-16T01:02:46;94234.41;;;4.30;100.00
6090;BME280;3073;42.660;23.316;2022-12-16T01:05:16;94240.16;;;4.37;100.00
6090;BME280;3073;42.660;23.316;2022-12-16T01:07:45;94246.69;;;4.51;100.00
6090;BME280;3073;42.660;23.316;2022-12-16T01:10:12;94255.59;;;4.54;100.00
6090;BME280;3073;42.660;23.316;2022-12-16T01:12:39;94250.66;;;4.41;100.00
6090;BME280;3073;42.660;23.316;2022-12-16T01:15:07;94246.69;;;4.51;100.00
6090;BME280;3073;42.660;23.316;2022-12-16T01:17:36;94263.72;;;4.62;100.00
6090;BME280;3073;42.660;23.316;2022-12-16T01:20:04;94261.94;;;4.38;100.00
6090;BME280;3073;42.660;23.316;2022-12-16T01:22:33;94278.50;;;4.28;100.00
6090;BME280;3073;42.660;23.316;2022-12-16T01:25:00;94259.38;;;4.13;100.00
6090;BME280;3073;42.660;23.316;2022-12-16T01:27:28;94240.44;;;4.29;100.00
6090;BME280;3073;42.660;23.316;2022-12-16T01:29:55;94242.34;;;4.34;100.00
6090;BME280;3073;42.660;23.316;2022-12-16T01:32:21;94251.09;;;4.31;100.00
6090;BME280;3073;42.660;23.316;2022-12-16T01:34:49;94245.59;;;4.41;100.00
6090;BME280;3073;42.660;23.316;2022-12-16T01:37:17;94241.78;;;4.32;100.00
6090;BME280;3073;42.660;23.316;2022-12-16T01:39:46;94246.25;;;4.30;100.00
6090;BME280;3073;42.660;23.316;2022-12-16T01:42:14;94242.97;;;4.29;100.00
6090;BME280;3073;42.660;23.316;2022-12-16T01:44:41;94255.72;;;4.03;100.00
6090;BME280;3073;42.660;23.316;2022-12-16T01:47:12;94226.56;;;4.13;100.00
6090;BME280;3073;42.660;23.316;2022-12-16T01:49:44;94228.13;;;4.08;100.00
6090;BME280;3073;42.660;23.316;2022-12-16T01:52:15;94234.59;;;3.91;100.00
6090;BME280;3073;42.660;23.316;2022-12-16T01:54:51;94234.94;;;4.01;100.00
6090;BME280;3073;42.660;23.316;2022-12-16T01:57:22;94212.63;;;3.98;100.00
6090;BME280;3073;42.660;23.316;2022-12-16T01:59:53;94239.25;;;3.94;100.00
6090;BME280;3073;42.660;23.316;2022-12-16T02:02:22;94235.75;;;3.95;100.00
6090;BME280;3073;42.660;23.316;2022-12-16T02:04:49;94244.31;;;3.87;100.00
6090;BME280;3073;42.660;23.316;2022-12-16T02:07:33;94217.66;;;4.04;100.00
6090;BME280;3073;42.660;23.316;2022-12-16T02:10:01;94201.09;;;4.15;100.00
6090;BME280;3073;42.660;23.316;2022-12-16T02:12:33;94183.59;;;4.20;100.00
6090;BME280;3073;42.660;23.316;2022-12-16T02:15:16;94206.09;;;3.84;100.00
6090;BME280;3073;42.660;23.316;2022-12-16T02:17:54;94193.19;;;4.05;100.00
6090;BME280;3073;42.660;23.316;2022-12-16T02:23:57;94197.91;;;3.95;100.00
6090;BME280;3073;42.660;23.316;2022-12-16T02:27:04;94191.56;;;3.86;100.00
6090;BME280;3073;42.660;23.316;2022-12-16T02:30:03;94207.53;;;3.73;100.00
6090;BME280;3073;42.660;23.316;2022-12-16T02:32:42;94198.56;;;3.77;100.00
6090;BME280;3073;42.660;23.316;2022-12-16T02:35:21;94188.41;;;3.90;100.00
6090;BME280;3073;42.660;23.316;2022-12-16T02:37:55;94182.94;;;4.00;100.00
6090;BME280;3073;42.660;23.316;2022-12-16T02:40:29;94197.88;;;4.01;100.00
6090;BME280;3073;42.660;23.316;2022-12-16T02:43:02;94187.91;;;4.13;100.00
6090;BME280;3073;42.660;23.316;2022-12-16T02:45:31;94200.69;;;4.18;100.00
6090;BME280;3073;42.660;23.316;2022-12-16T02:48:04;94216.19;;;3.84;100.00
6090;BME280;3073;42.660;23.316;2022-12-16T02:50:34;94207.97;;;4.01;100.00
6090;BME280;3073;42.660;23.316;2022-12-16T02:53:05;94239.50;;;3.86;100.00
6090;BME280;3073;42.660;23.316;2022-12-16T02:55:44;94244.69;;;3.91;100.00
6090;BME280;3073;42.660;23.316;2022-12-16T02:58:15;94253.97;;;4.03;100.00
6090;BME280;3073;42.660;23.316;2022-12-16T03:00:51;94242.91;;;3.98;100.00
6090;BME280;3073;42.660;23.316;2022-12-16T03:03:25;94227.75;;;4.04;100.00
6090;BME280;3073;42.660;23.316;2022-12-16T03:05:56;94235.47;;;4.16;100.00
6090;BME280;3073;42.660;23.316;2022-12-16T03:08:30;94231.41;;;4.08;100.00
6090;BME280;3073;42.660;23.316;2022-12-16T03:11:00;94221.63;;;4.25;100.00
6090;BME280;3073;42.660;23.316;2022-12-16T03:13:31;94215.66;;;4.13;100.00
6090;BME280;3073;42.660;23.316;2022-12-16T03:16:00;94216.63;;;4.12;100.00
6090;BME280;3073;42.660;23.316;2022-12-16T03:18:32;94206.94;;;4.09;100.00
6090;BME280;3073;42.660;23.316;2022-12-16T03:21:03;94184.25;;;4.09;100.00
6090;BME280;3073;42.660;23.316;2022-12-16T03:23:34;94206.69;;;4.17;100.00
6090;BME280;3073;42.660;23.316;2022-12-16T03:26:07;94203.38;;;4.23;100.00
6090;BME280;3073;42.660;23.316;2022-12-16T03:28:42;94194.00;;;4.30;100.00
6090;BME280;3073;42.660;23.316;2022-12-16T03:31:16;94196.72;;;4.29;100.00
6090;BME280;3073;42.660;23.316;2022-12-16T03:33:51;94194.34;;;4.34;100.00
6090;BME280;3073;42.660;23.316;2022-12-16T03:36:25;94201.94;;;4.34;100.00
6090;BME280;3073;42.660;23.316;2022-12-16T03:38:53;94207.75;;;4.34;100.00
6090;BME280;3073;42.660;23.316;2022-12-16T03:41:22;94218.06;;;4.33;100.00
6090;BME280;3073;42.660;23.316;2022-12-16T03:43:49;94216.66;;;4.43;100.00
6090;BME280;3073;42.660;23.316;2022-12-16T03:46:17;94227.69;;;4.49;100.00
6090;BME280;3073;42.660;23.316;2022-12-16T03:48:45;94236.41;;;4.53;100.00
6090;BME280;3073;42.660;23.316;2022-12-16T03:51:13;94237.31;;;4.58;100.00
6090;BME280;3073;42.660;23.316;2022-12-16T03:53:41;94246.84;;;4.25;100.00
6090;BME280;3073;42.660;23.316;2022-12-16T03:56:08;94241.00;;;4.31;100.00
6090;BME280;3073;42.660;23.316;2022-12-16T03:58:35;94248.00;;;3.91;100.00
6090;BME280;3073;42.660;23.316;2022-12-16T04:01:04;94242.56;;;3.88;100.00
6090;BME280;3073;42.660;23.316;2022-12-16T04:03:31;94259.00;;;4.10;100.00
6090;BME280;3073;42.660;23.316;2022-12-16T04:05:58;94257.81;;;4.12;100.00
6090;BME280;3073;42.660;23.316;2022-12-16T04:08:26;94261.84;;;4.20;100.00
6090;BME280;3073;42.660;23.316;2022-12-16T04:10:53;94245.34;;;4.18;100.00
6090;BME280;3073;42.660;23.316;2022-12-16T04:13:57;94240.72;;;4.08;100.00
6090;BME280;3073;42.660;23.316;2022-12-16T04:16:43;94236.00;;;3.87;100.00
6090;BME280;3073;42.660;23.316;2022-12-16T04:19:32;94246.00;;;4.06;100.00
6090;BME280;3073;42.660;23.316;2022-12-16T04:22:19;94247.66;;;3.81;100.00
6090;BME280;3073;42.660;23.316;2022-12-16T04:25:09;94236.47;;;4.08;100.00
6090;BME280;3073;42.660;23.316;2022-12-16T04:27:38;94230.19;;;4.18;100.00
6090;BME280;3073;42.660;23.316;2022-12-16T04:30:12;94219.31;;;4.24;100.00
6090;BME280;3073;42.660;23.316;2022-12-16T04:32:45;94235.34;;;4.36;100.00
6090;BME280;3073;42.660;23.316;2022-12-16T04:35:30;94234.75;;;4.40;100.00
6090;BME280;3073;42.660;23.316;2022-12-16T04:38:14;94250.59;;;4.47;100.00
6090;BME280;3073;42.660;23.316;2022-12-16T04:41:00;94248.75;;;4.36;100.00
6090;BME280;3073;42.660;23.316;2022-12-16T04:43:45;94233.59;;;4.36;100.00
6090;BME280;3073;42.660;23.316;2022-12-16T04:46:29;94213.53;;;4.41;100.00
6090;BME280;3073;42.660;23.316;2022-12-16T04:49:13;94231.16;;;4.23;100.00
6090;BME280;3073;42.660;23.316;2022-12-16T04:51:58;94236.13;;;4.36;100.00
6090;BME280;3073;42.660;23.316;2022-12-16T04:54:42;94228.69;;;4.41;100.00
6090;BME280;3073;42.660;23.316;2022-12-16T04:57:32;94213.72;;;4.46;100.00
6090;BME280;3073;42.660;23.316;2022-12-16T05:00:17;94234.00;;;4.33;100.00
6090;BME280;3073;42.660;23.316;2022-12-16T05:03:01;94235.66;;;4.46;100.00
6090;BME280;3073;42.660;23.316;2022-12-16T05:05:45;94232.50;;;4.50;100.00
6090;BME280;3073;42.660;23.316;2022-12-16T05:08:30;94228.22;;;4.51;100.00
6090;BME280;3073;42.660;23.316;2022-12-16T05:11:14;94231.31;;;4.59;100.00
6090;BME280;3073;42.660;23.316;2022-12-16T05:13:59;94242.66;;;4.44;100.00
6090;BME280;3073;42.660;23.316;2022-12-16T05:16:44;94240.50;;;4.47;100.00
6090;BME280;3073;42.660;23.316;2022-12-16T05:19:28;94249.97;;;4.21;100.00
6090;BME280;3073;42.660;23.316;2022-12-16T05:22:13;94234.75;;;4.40;100.00
6090;BME280;3073;42.660;23.316;2022-12-16T05:24:57;94246.97;;;4.43;100.00
6090;BME280;3073;42.660;23.316;2022-12-16T05:27:41;94238.22;;;4.39;100.00
6090;BME280;3073;42.660;23.316;2022-12-16T05:30:27;94241.53;;;4.40;100.00
6090;BME280;3073;42.660;23.316;2022-12-16T05:33:11;94243.44;;;4.44;100.00
6090;BME280;3073;42.660;23.316;2022-12-16T05:35:56;94268.66;;;4.51;100.00
6090;BME280;3073;42.660;23.316;2022-12-16T05:38:40;94280.94;;;4.41;100.00
6090;BME280;3073;42.660;23.316;2022-12-16T05:41:24;94283.06;;;4.44;100.00
6090;BME280;3073;42.660;23.316;2022-12-16T05:44:08;94280.19;;;4.40;100.00
6090;BME280;3073;42.660;23.316;2022-12-16T05:46:53;94274.97;;;4.35;100.00
6090;BME280;3073;42.660;23.316;2022-12-16T05:49:37;94295.25;;;4.15;100.00
6090;BME280;3073;42.660;23.316;2022-12-16T05:52:22;94284.34;;;4.22;100.00
6090;BME280;3073;42.660;23.316;2022-12-16T05:55:07;94273.44;;;4.28;100.00
6090;BME280;3073;42.660;23.316;2022-12-16T05:57:51;94258.66;;;4.31;100.00
6090;BME280;3073;42.660;23.316;2022-12-16T06:00:37;94287.81;;;4.27;100.00
6090;BME280;3073;42.660;23.316;2022-12-16T06:03:22;94288.66;;;4.14;100.00
6090;BME280;3073;42.660;23.316;2022-12-16T06:06:07;94290.28;;;4.02;100.00
6090;BME280;3073;42.660;23.316;2022-12-16T06:08:51;94311.81;;;4.05;100.00
6090;BME280;3073;42.660;23.316;2022-12-16T06:11:36;94317.22;;;4.15;100.00
6090;BME280;3073;42.660;23.316;2022-12-16T06:14:20;94293.56;;;4.03;100.00
6090;BME280;3073;42.660;23.316;2022-12-16T06:17:04;94306.06;;;3.85;100.00
6090;BME280;3073;42.660;23.316;2022-12-16T06:19:50;94309.28;;;4.05;100.00
6090;BME280;3073;42.660;23.316;2022-12-16T06:22:35;94324.81;;;4.02;100.00
6090;BME280;3073;42.660;23.316;2022-12-16T06:25:19;94318.34;;;4.19;100.00
6090;BME280;3073;42.660;23.316;2022-12-16T06:28:03;94296.88;;;4.41;100.00
6090;BME280;3073;42.660;23.316;2022-12-16T06:30:47;94320.28;;;4.17;100.00
6090;BME280;3073;42.660;23.316;2022-12-16T06:33:32;94301.03;;;4.29;100.00
6090;BME280;3073;42.660;23.316;2022-12-16T06:36:17;94300.03;;;4.37;100.00
6090;BME280;3073;42.660;23.316;2022-12-16T06:39:01;94290.34;;;4.27;100.00
6090;BME280;3073;42.660;23.316;2022-12-16T06:41:45;94301.84;;;4.23;100.00
6090;BME280;3073;42.660;23.316;2022-12-16T06:44:30;94305.47;;;4.34;100.00
6090;BME280;3073;42.660;23.316;2022-12-16T06:47:14;94287.88;;;4.52;100.00
6090;BME280;3073;42.660;23.316;2022-12-16T06:49:58;94286.28;;;4.57;100.00
6090;BME280;3073;42.660;23.316;2022-12-16T06:52:45;94288.06;;;4.50;100.00
6090;BME280;3073;42.660;23.316;2022-12-16T06:55:29;94300.00;;;4.43;100.00
6090;BME280;3073;42.660;23.316;2022-12-16T06:58:13;94286.38;;;4.44;100.00
6090;BME280;3073;42.660;23.316;2022-12-16T07:00:57;94282.88;;;4.45;100.00
6090;BME280;3073;42.660;23.316;2022-12-16T07:03:53;94296.56;;;4.62;100.00
6090;BME280;3073;42.660;23.316;2022-12-16T07:06:37;94301.78;;;4.67;100.00
6090;BME280;3073;42.660;23.316;2022-12-16T07:09:22;94304.81;;;4.45;100.00
6090;BME280;3073;42.660;23.316;2022-12-16T07:12:07;94318.72;;;4.29;100.00
6090;BME280;3073;42.660;23.316;2022-12-16T07:14:51;94333.47;;;4.26;100.00
6090;BME280;3073;42.660;23.316;2022-12-16T07:17:38;94288.34;;;4.42;100.00
6090;BME280;3073;42.660;23.316;2022-12-16T07:20:22;94320.59;;;4.40;100.00
6090;BME280;3073;42.660;23.316;2022-12-16T07:23:11;94295.91;;;4.42;100.00
6090;BME280;3073;42.660;23.316;2022-12-16T07:25:57;94310.88;;;4.37;100.00
6090;BME280;3073;42.660;23.316;2022-12-16T07:28:41;94321.31;;;4.47;100.00
6090;BME280;3073;42.660;23.316;2022-12-16T07:31:25;94292.50;;;4.61;100.00
6090;BME280;3073;42.660;23.316;2022-12-16T07:34:09;94318.16;;;4.58;100.00
6090;BME280;3073;42.660;23.316;2022-12-16T07:36:53;94310.34;;;4.66;100.00
6090;BME280;3073;42.660;23.316;2022-12-16T07:39:43;94326.97;;;4.49;100.00
6090;BME280;3073;42.660;23.316;2022-12-16T07:42:29;94319.78;;;4.46;100.00
6090;BME280;3073;42.660;23.316;2022-12-16T07:45:14;94303.75;;;4.65;100.00
6090;BME280;3073;42.660;23.316;2022-12-16T07:47:58;94315.44;;;4.60;100.00
6090;BME280;3073;42.660;23.316;2022-12-16T07:50:43;94296.25;;;4.77;100.00
6090;BME280;3073;42.660;23.316;2022-12-16T07:53:27;94309.59;;;4.59;100.00
6090;BME280;3073;42.660;23.316;2022-12-16T07:56:11;94324.06;;;4.77;100.00
6090;BME280;3073;42.660;23.316;2022-12-16T07:58:57;94329.47;;;4.81;100.00
6090;BME280;3073;42.660;23.316;2022-12-16T08:01:42;94350.38;;;4.70;100.00
6090;BME280;3073;42.660;23.316;2022-12-16T08:04:26;94311.56;;;4.89;100.00
6090;BME280;3073;42.660;23.316;2022-12-16T08:07:10;94343.19;;;4.66;100.00
6090;BME280;3073;42.660;23.316;2022-12-16T08:09:54;94322.94;;;4.98;100.00
6090;BME280;3073;42.660;23.316;2022-12-16T08:12:39;94324.69;;;4.97;100.00
6090;BME280;3073;42.660;23.316;2022-12-16T08:15:24;94339.47;;;5.00;100.00
6090;BME280;3073;42.660;23.316;2022-12-16T08:18:08;94335.81;;;4.96;100.00
6090;BME280;3073;42.660;23.316;2022-12-16T08:20:52;94308.88;;;5.08;100.00
6090;BME280;3073;42.660;23.316;2022-12-16T08:23:36;94362.56;;;5.04;100.00
6090;BME280;3073;42.660;23.316;2022-12-16T08:26:21;94316.34;;;5.22;100.00
6090;BME280;3073;42.660;23.316;2022-12-16T08:29:05;94319.53;;;5.10;100.00
6090;BME280;3073;42.660;23.316;2022-12-16T08:31:50;94334.06;;;5.22;100.00
6090;BME280;3073;42.660;23.316;2022-12-16T08:34:34;94328.28;;;5.39;100.00
6090;BME280;3073;42.660;23.316;2022-12-16T08:37:19;94329.84;;;5.58;100.00
6090;BME280;3073;42.660;23.316;2022-12-16T08:40:03;94344.13;;;5.53;100.00
6090;BME280;3073;42.660;23.316;2022-12-16T08:42:48;94337.31;;;5.71;100.00
6090;BME280;3073;42.660;23.316;2022-12-16T08:45:32;94326.16;;;5.36;100.00
6090;BME280;3073;42.660;23.316;2022-12-16T08:48:18;94327.88;;;5.60;100.00
6090;BME280;3073;42.660;23.316;2022-12-16T08:51:02;94329.41;;;5.18;100.00
6090;BME280;3073;42.660;23.316;2022-12-16T08:53:47;94314.19;;;5.50;100.00
6090;BME280;3073;42.660;23.316;2022-12-16T08:56:31;94292.13;;;5.57;100.00
6090;BME280;3073;42.660;23.316;2022-12-16T08:59:15;94305.94;;;5.54;100.00
6090;BME280;3073;42.660;23.316;2022-12-16T09:01:59;94298.09;;;5.62;100.00
6090;BME280;3073;42.660;23.316;2022-12-16T09:04:45;94288.47;;;5.53;100.00
6090;BME280;3073;42.660;23.316;2022-12-16T09:07:29;94294.72;;;5.68;100.00
6090;BME280;3073;42.660;23.316;2022-12-16T09:10:14;94283.97;;;5.91;100.00
6090;BME280;3073;42.660;23.316;2022-12-16T09:13:04;94297.41;;;6.10;100.00
6090;BME280;3073;42.660;23.316;2022-12-16T09:15:49;94297.34;;;6.16;100.00
6090;BME280;3073;42.660;23.316;2022-12-16T09:18:33;94281.38;;;6.16;100.00
6090;BME280;3073;42.660;23.316;2022-12-16T09:21:18;94273.69;;;6.04;100.00
6090;BME280;3073;42.660;23.316;2022-12-16T09:24:03;94274.75;;;6.15;100.00
6090;BME280;3073;42.660;23.316;2022-12-16T09:26:47;94289.50;;;6.78;100.00
6090;BME280;3073;42.660;23.316;2022-12-16T09:29:42;94277.53;;;6.96;100.00
6090;BME280;3073;42.660;23.316;2022-12-16T09:32:27;94259.72;;;7.77;100.00
6090;BME280;3073;42.660;23.316;2022-12-16T09:35:11;94289.00;;;7.45;100.00
6090;BME280;3073;42.660;23.316;2022-12-16T09:37:57;94276.72;;;7.89;100.00
6090;BME280;3073;42.660;23.316;2022-12-16T09:40:41;94285.56;;;8.26;100.00
6090;BME280;3073;42.660;23.316;2022-12-16T09:43:47;94295.56;;;8.44;100.00
6090;BME280;3073;42.660;23.316;2022-12-16T09:46:41;94304.53;;;9.42;100.00
6090;BME280;3073;42.660;23.316;2022-12-16T09:49:44;94311.81;;;10.80;100.00
6090;BME280;3073;42.660;23.316;2022-12-16T09:52:41;94305.09;;;11.69;100.00
6090;BME280;3073;42.660;23.316;2022-12-16T09:55:31;94317.28;;;12.66;100.00
6090;BME280;3073;42.660;23.316;2022-12-16T09:58:16;94308.59;;;12.77;100.00
6090;BME280;3073;42.660;23.316;2022-12-16T10:01:01;94317.13;;;13.44;100.00
6090;BME280;3073;42.660;23.316;2022-12-16T10:03:54;94321.75;;;14.41;100.00
6090;BME280;3073;42.660;23.316;2022-12-16T10:06:42;94325.50;;;15.13;100.00
6090;BME280;3073;42.660;23.316;2022-12-16T10:09:31;94327.16;;;15.66;100.00
6090;BME280;3073;42.660;23.316;2022-12-16T10:12:27;94318.53;;;15.47;100.00
6090;BME280;3073;42.660;23.316;2022-12-16T10:15:19;94346.53;;;15.82;100.00
6090;BME280;3073;42.660;23.316;2022-12-16T10:18:28;94330.19;;;15.68;100.00
6090;BME280;3073;42.660;23.316;2022-12-16T10:21:19;94320.47;;;16.18;100.00
6090;BME280;3073;42.660;23.316;2022-12-16T10:24:08;94327.75;;;16.11;100.00
6090;BME280;3073;42.660;23.316;2022-12-16T10:27:03;94315.34;;;16.13;100.00
6090;BME280;3073;42.660;23.316;2022-12-16T10:29:49;94287.91;;;16.69;100.00
6090;BME280;3073;42.660;23.316;2022-12-16T10:32:38;94278.44;;;16.65;100.00
6090;BME280;3073;42.660;23.316;2022-12-16T10:35:27;94291.47;;;16.31;100.00
6090;BME280;3073;42.660;23.316;2022-12-16T10:38:19;94279.19;;;16.65;100.00
6090;BME280;3073;42.660;23.316;2022-12-16T10:41:05;94274.53;;;16.86;100.00
6090;BME280;3073;42.660;23.316;2022-12-16T10:43:51;94280.38;;;17.10;95.60
6090;BME280;3073;42.660;23.316;2022-12-16T10:46:38;94297.00;;;18.23;87.03
6090;BME280;3073;42.660;23.316;2022-12-16T10:49:22;94290.72;;;18.79;83.90
6090;BME280;3073;42.660;23.316;2022-12-16T10:52:09;94277.69;;;18.84;78.46
6090;BME280;3073;42.660;23.316;2022-12-16T10:54:58;94287.03;;;18.93;80.30
6090;BME280;3073;42.660;23.316;2022-12-16T10:57:54;94271.41;;;18.98;79.11
6090;BME280;3073;42.660;23.316;2022-12-16T11:00:42;94277.97;;;18.82;77.98
6090;BME280;3073;42.660;23.316;2022-12-16T11:03:29;94292.34;;;19.55;75.11
6090;BME280;3073;42.660;23.316;2022-12-16T11:06:18;94293.09;;;19.33;75.77
6090;BME280;3073;42.660;23.316;2022-12-16T11:09:31;94286.09;;;19.12;72.93
6090;BME280;3073;42.660;23.316;2022-12-16T11:12:24;94280.06;;;18.44;79.42
6090;BME280;3073;42.660;23.316;2022-12-16T11:15:24;94294.44;;;18.86;73.95
6090;BME280;3073;42.660;23.316;2022-12-16T11:18:10;94286.41;;;18.88;74.15
6090;BME280;3073;42.660;23.316;2022-12-16T11:21:20;94295.44;;;18.77;77.03
6090;BME280;3073;42.660;23.316;2022-12-16T11:24:10;94283.00;;;19.23;72.62
6090;BME280;3073;42.660;23.316;2022-12-16T11:26:56;94278.47;;;19.29;73.49
6090;BME280;3073;42.660;23.316;2022-12-16T11:29:52;94291.84;;;18.10;76.13
6090;BME280;3073;42.660;23.316;2022-12-16T11:32:39;94268.59;;;17.36;83.83
6090;BME280;3073;42.660;23.316;2022-12-16T11:35:28;94274.72;;;17.86;84.19
6090;BME280;3073;42.660;23.316;2022-12-16T11:38:20;94273.81;;;16.43;92.49
6090;BME280;3073;42.660;23.316;2022-12-16T11:41:08;94278.75;;;17.14;96.12
6090;BME280;3073;42.660;23.316;2022-12-16T11:43:57;94269.34;;;17.56;89.50
6090;BME280;3073;42.660;23.316;2022-12-16T11:46:43;94257.69;;;17.72;90.31
6090;BME280;3073;42.660;23.316;2022-12-16T11:49:31;94240.00;;;18.06;87.64
6090;BME280;3073;42.660;23.316;2022-12-16T11:52:18;94261.00;;;19.34;80.63
6090;BME280;3073;42.660;23.316;2022-12-16T11:55:15;94255.38;;;18.88;76.66
6090;BME280;3073;42.660;23.316;2022-12-16T11:58:04;94259.72;;;19.76;75.54
6090;BME280;3073;42.660;23.316;2022-12-16T12:01:01;94259.09;;;20.19;72.62
6090;BME280;3073;42.660;23.316;2022-12-16T12:03:48;94229.75;;;20.40;71.63
6090;BME280;3073;42.660;23.316;2022-12-16T12:06:46;94229.69;;;19.75;71.89
6090;BME280;3073;42.660;23.316;2022-12-16T12:09:37;94239.06;;;20.41;72.66
6090;BME280;3073;42.660;23.316;2022-12-16T12:12:32;94234.59;;;19.46;73.05
6090;BME280;3073;42.660;23.316;2022-12-16T12:15:25;94217.72;;;19.26;77.82
6090;BME280;3073;42.660;23.316;2022-12-16T12:18:18;94224.09;;;19.82;73.90
6090;BME280;3073;42.660;23.316;2022-12-16T12:21:10;94213.78;;;19.51;77.73
6090;BME280;3073;42.660;23.316;2022-12-16T12:24:04;94224.41;;;19.41;78.11
6090;BME280;3073;42.660;23.316;2022-12-16T12:26:56;94207.22;;;18.78;78.55
6090;BME280;3073;42.660;23.316;2022-12-16T12:29:54;94218.91;;;17.90;89.26
6090;BME280;3073;42.660;23.316;2022-12-16T12:32:50;94219.50;;;18.37;89.96
6090;BME280;3073;42.660;23.316;2022-12-16T12:35:46;94213.94;;;18.57;89.73
6090;BME280;3073;42.660;23.316;2022-12-16T12:38:39;94216.97;;;18.59;91.56
6090;BME280;3073;42.660;23.316;2022-12-16T12:41:27;94219.75;;;17.99;96.34
6090;BME280;3073;42.660;23.316;2022-12-16T12:44:22;94214.41;;;17.82;98.87
6090;BME280;3073;42.660;23.316;2022-12-16T12:47:22;94222.81;;;17.61;100.00
6090;BME280;3073;42.660;23.316;2022-12-16T12:50:08;94217.28;;;16.89;100.00
6090;BME280;3073;42.660;23.316;2022-12-16T12:53:04;94217.88;;;16.67;100.00
6090;BME280;3073;42.660;23.316;2022-12-16T12:55:59;94212.72;;;16.67;100.00
6090;BME280;3073;42.660;23.316;2022-12-16T12:58:49;94218.34;;;16.51;100.00
6090;BME280;3073;42.660;23.316;2022-12-16T13:01:36;94214.31;;;17.60;100.00
6090;BME280;3073;42.660;23.316;2022-12-16T13:04:26;94230.63;;;17.56;100.00
6090;BME280;3073;42.660;23.316;2022-12-16T13:07:14;94223.47;;;18.07;100.00
6090;BME280;3073;42.660;23.316;2022-12-16T13:10:30;94210.88;;;18.99;95.09
6090;BME280;3073;42.660;23.316;2022-12-16T13:13:28;94225.91;;;18.75;95.85
6090;BME280;3073;42.660;23.316;2022-12-16T13:19:54;94194.50;;;18.46;94.38
6090;BME280;3073;42.660;23.316;2022-12-16T13:22:39;94211.25;;;17.26;100.00
6090;BME280;3073;42.660;23.316;2022-12-16T13:25:37;94220.03;;;17.11;100.00
6090;BME280;3073;42.660;23.316;2022-12-16T13:28:24;94204.88;;;17.37;100.00
6090;BME280;3073;42.660;23.316;2022-12-16T13:31:10;94190.47;;;17.36;100.00
6090;BME280;3073;42.660;23.316;2022-12-16T13:34:02;94211.28;;;16.19;100.00
6090;BME280;3073;42.660;23.316;2022-12-16T13:36:56;94192.69;;;16.96;100.00
6090;BME280;3073;42.660;23.316;2022-12-16T13:39:42;94200.31;;;17.34;100.00
6090;BME280;3073;42.660;23.316;2022-12-16T13:42:51;94221.19;;;16.49;100.00
6090;BME280;3073;42.660;23.316;2022-12-16T13:45:38;94211.81;;;16.58;100.00
6090;BME280;3073;42.660;23.316;2022-12-16T13:48:32;94213.09;;;16.61;100.00
6090;BME280;3073;42.660;23.316;2022-12-16T13:54:50;94228.97;;;15.59;100.00
6090;BME280;3073;42.660;23.316;2022-12-16T13:57:36;94229.59;;;15.17;100.00
6090;BME280;3073;42.660;23.316;2022-12-16T14:00:24;94212.88;;;14.91;100.00
6090;BME280;3073;42.660;23.316;2022-12-16T14:03:12;94233.47;;;14.47;100.00
6090;BME280;3073;42.660;23.316;2022-12-16T14:06:00;94233.94;;;14.54;100.00
6090;BME280;3073;42.660;23.316;2022-12-16T14:08:48;94243.81;;;14.22;100.00
6090;BME280;3073;42.660;23.316;2022-12-16T14:11:41;94250.44;;;14.38;100.00
6090;BME280;3073;42.660;23.316;2022-12-16T14:14:32;94254.66;;;14.09;100.00
6090;BME280;3073;42.660;23.316;2022-12-16T14:17:22;94260.84;;;14.03;100.00
6090;BME280;3073;42.660;23.316;2022-12-16T14:20:15;94250.13;;;13.90;100.00
6090;BME280;3073;42.660;23.316;2022-12-16T14:23:27;94254.19;;;13.97;100.00
6090;BME280;3073;42.660;23.316;2022-12-16T14:26:14;94268.13;;;13.65;100.00
6090;BME280;3073;42.660;23.316;2022-12-16T14:29:02;94245.06;;;13.60;100.00
6090;BME280;3073;42.660;23.316;2022-12-16T14:31:47;94276.31;;;12.71;100.00
6090;BME280;3073;42.660;23.316;2022-12-16T14:34:33;94266.59;;;12.78;100.00
6090;BME280;3073;42.660;23.316;2022-12-16T14:37:19;94251.28;;;12.94;100.00
6090;BME280;3073;42.660;23.316;2022-12-16T14:40:16;94257.91;;;13.05;100.00
6090;BME280;3073;42.660;23.316;2022-12-16T14:43:01;94257.91;;;12.95;100.00